createdAt,value
2017-10-27T00:01:14.990Z,17.77
2017-10-27T00:03:43.076Z,16.97
2017-10-27T00:06:11.179Z,19.07
2017-10-27T00:08:40.084Z,19.17
2017-10-27T00:11:08.161Z,17.30
2017-10-27T00:13:36.267Z,19.00
2017-10-27T00:16:04.353Z,20.00
2017-10-27T00:18:32.436Z,19.50
2017-10-27T00:21:00.548Z,19.63
2017-10-27T00:23:28.899Z,19.93
2017-10-27T00:25:57.786Z,20.00
2017-10-27T00:28:26.643Z,19.50
2017-10-27T00:30:54.879Z,19.83
2017-10-27T00:33:22.980Z,21.03
2017-10-27T00:35:51.083Z,21.27
2017-10-27T00:38:19.164Z,20.47
2017-10-27T00:40:47.267Z,21.20
2017-10-27T00:43:15.592Z,20.30
2017-10-27T00:45:43.675Z,21.37
2017-10-27T00:48:12.284Z,22.67
2017-10-27T00:50:41.148Z,21.77
2017-10-27T00:53:09.715Z,20.83
2017-10-27T00:55:37.826Z,22.37
2017-10-27T00:58:06.672Z,21.67
2017-10-27T01:00:35.285Z,22.33
2017-10-27T01:03:03.368Z,21.80
2017-10-27T01:05:32.235Z,23.07
2017-10-27T01:08:00.336Z,21.73
2017-10-27T01:10:29.195Z,22.90
2017-10-27T01:12:57.293Z,22.47
2017-10-27T01:15:25.403Z,21.30
2017-10-27T01:17:53.508Z,21.83
2017-10-27T01:20:21.599Z,20.93
2017-10-27T01:22:49.904Z,20.43
2017-10-27T01:25:18.743Z,21.77
2017-10-27T01:27:46.846Z,21.27
2017-10-27T01:30:14.950Z,22.23
2017-10-27T01:32:43.035Z,22.20
2017-10-27T01:35:11.136Z,20.03
2017-10-27T01:37:39.413Z,19.60
2017-10-27T01:40:07.608Z,20.50
2017-10-27T01:42:36.133Z,21.27
2017-10-27T01:45:04.212Z,20.70
2017-10-27T01:47:32.305Z,19.50
2017-10-27T01:50:00.423Z,20.37
2017-10-27T01:52:28.981Z,20.00
2017-10-27T01:54:57.093Z,21.67
2017-10-27T01:57:25.548Z,19.40
2017-10-27T01:59:53.624Z,21.20
2017-10-27T02:02:22.976Z,19.97
2017-10-27T02:04:51.078Z,21.10
2017-10-27T02:07:19.159Z,20.20
2017-10-27T02:09:47.255Z,20.40
2017-10-27T02:12:15.376Z,19.90
2017-10-27T02:14:43.468Z,19.07
2017-10-27T02:17:11.584Z,18.47
2017-10-27T02:19:39.674Z,19.27
2017-10-27T02:22:07.808Z,19.40
2017-10-27T02:24:35.913Z,18.20
2017-10-27T02:27:04.004Z,19.27
2017-10-27T02:29:32.105Z,18.53
2017-10-27T02:32:00.398Z,20.00
2017-10-27T02:34:29.255Z,18.70
2017-10-27T02:36:57.363Z,17.80
2017-10-27T02:39:26.219Z,20.00
2017-10-27T02:41:54.472Z,18.00
2017-10-27T02:44:22.565Z,18.87
2017-10-27T02:46:50.869Z,19.90
2017-10-27T02:49:18.951Z,19.13
2017-10-27T02:51:47.069Z,19.97
2017-10-27T02:54:15.167Z,19.90
2017-10-27T02:56:43.315Z,20.30
2017-10-27T02:59:11.772Z,19.07
2017-10-27T03:01:39.856Z,20.07
2017-10-27T03:04:07.951Z,20.23
2017-10-27T03:06:36.054Z,19.80
2017-10-27T03:09:04.155Z,19.53
2017-10-27T03:11:32.263Z,20.00
2017-10-27T03:14:00.364Z,19.80
2017-10-27T03:16:28.484Z,21.00
2017-10-27T03:18:56.637Z,19.93
2017-10-27T03:21:24.747Z,19.73
2017-10-27T03:23:52.859Z,18.23
2017-10-27T03:26:20.939Z,20.10
2017-10-27T03:28:49.040Z,19.50
2017-10-27T03:31:17.124Z,20.10
2017-10-27T03:33:45.245Z,19.57
2017-10-27T03:36:13.338Z,19.60
2017-10-27T03:38:42.404Z,20.53
2017-10-27T03:41:10.506Z,21.20
2017-10-27T03:43:38.609Z,21.60
2017-10-27T03:46:06.717Z,20.20
2017-10-27T03:48:34.808Z,20.60
2017-10-27T03:51:02.924Z,19.47
2017-10-27T03:53:31.012Z,19.60
2017-10-27T03:55:59.141Z,18.83
2017-10-27T03:58:28.320Z,18.67
2017-10-27T04:00:56.467Z,18.53
2017-10-27T04:03:24.976Z,18.60
2017-10-27T04:05:53.232Z,16.87
2017-10-27T04:08:21.353Z,17.50
2017-10-27T04:10:49.453Z,18.40
2017-10-27T04:13:17.537Z,16.20
2017-10-27T04:15:46.644Z,17.27
2017-10-27T04:18:14.727Z,18.00
2017-10-27T04:20:42.839Z,16.37
2017-10-27T04:23:10.941Z,17.73
2017-10-27T04:25:39.021Z,15.27
2017-10-27T04:28:07.171Z,17.87
2017-10-27T04:30:35.292Z,16.67
2017-10-27T04:33:03.426Z,15.60
2017-10-27T04:35:31.503Z,15.30
2017-10-27T04:37:59.647Z,14.00
2017-10-27T04:40:27.760Z,17.40
2017-10-27T04:42:55.857Z,14.50
2017-10-27T04:45:24.164Z,13.80
2017-10-27T04:47:52.276Z,14.10
2017-10-27T04:50:20.393Z,14.13
2017-10-27T04:52:48.479Z,12.93
2017-10-27T04:55:16.806Z,13.10
2017-10-27T04:57:44.897Z,13.57
2017-10-27T05:00:12.999Z,12.57
2017-10-27T05:02:41.116Z,13.00
2017-10-27T05:05:09.221Z,13.43
2017-10-27T05:07:37.323Z,14.00
2017-10-27T05:10:06.172Z,12.20
2017-10-27T05:12:34.287Z,13.20
2017-10-27T05:15:02.364Z,12.00
2017-10-27T05:17:36.988Z,11.73
2017-10-27T05:20:10.559Z,11.67
2017-10-27T05:22:44.101Z,11.10
2017-10-27T05:25:12.645Z,10.67
2017-10-27T05:27:41.847Z,10.90
2017-10-27T05:30:09.957Z,10.07
2017-10-27T05:32:38.072Z,10.50
2017-10-27T05:35:06.164Z,8.93
2017-10-27T05:37:34.293Z,10.00
2017-10-27T05:40:02.399Z,9.80
2017-10-27T05:42:30.499Z,8.23
2017-10-27T05:44:58.592Z,9.30
2017-10-27T05:47:26.693Z,7.97
2017-10-27T05:49:55.060Z,8.93
2017-10-27T05:52:23.174Z,7.50
2017-10-27T05:54:51.265Z,6.53
2017-10-27T05:57:20.136Z,7.37
2017-10-27T05:59:48.245Z,8.77
2017-10-27T06:02:16.325Z,7.47
2017-10-27T06:04:44.428Z,6.10
2017-10-27T06:07:12.521Z,7.50
2017-10-27T06:09:40.881Z,7.20
2017-10-27T06:12:10.015Z,6.77
2017-10-27T06:14:39.079Z,7.70
2017-10-27T06:17:07.191Z,6.70
2017-10-27T06:19:35.289Z,6.30
2017-10-27T06:22:03.406Z,7.03
2017-10-27T06:24:31.499Z,5.17
2017-10-27T06:27:00.376Z,6.23
2017-10-27T06:29:28.471Z,6.37
2017-10-27T06:31:57.323Z,5.90
2017-10-27T06:34:25.432Z,5.63
2017-10-27T06:36:54.292Z,5.60
2017-10-27T06:39:22.368Z,5.47
2017-10-27T06:41:50.472Z,5.60
2017-10-27T06:44:18.590Z,5.80
2017-10-27T06:46:46.685Z,5.57
2017-10-27T06:49:14.764Z,5.77
2017-10-27T06:51:43.274Z,5.83
2017-10-27T06:54:13.338Z,5.47
2017-10-27T06:56:41.429Z,7.40
2017-10-27T06:59:09.536Z,5.00
2017-10-27T07:01:37.628Z,5.70
2017-10-27T07:04:05.710Z,4.47
2017-10-27T07:06:33.839Z,4.83
2017-10-27T07:09:01.941Z,5.83
2017-10-27T07:11:30.131Z,5.40
2017-10-27T07:13:59.043Z,6.00
2017-10-27T07:16:27.824Z,6.00
2017-10-27T07:18:55.923Z,5.77
2017-10-27T07:21:24.004Z,6.53
2017-10-27T07:23:52.116Z,7.00
2017-10-27T07:26:20.199Z,6.47
2017-10-27T07:28:48.297Z,6.30
2017-10-27T07:31:16.456Z,7.40
2017-10-27T07:33:44.531Z,6.97
2017-10-27T07:36:12.632Z,7.50
2017-10-27T07:38:40.718Z,6.63
2017-10-27T07:41:09.672Z,7.23
2017-10-27T07:43:37.750Z,7.57
2017-10-27T07:46:05.867Z,6.90
2017-10-27T07:48:34.686Z,6.27
2017-10-27T07:51:03.546Z,5.97
2017-10-27T07:53:33.229Z,6.87
2017-10-27T07:56:01.547Z,5.50
2017-10-27T07:58:29.697Z,6.80
2017-10-27T08:00:58.553Z,6.00
2017-10-27T08:03:26.642Z,6.73
2017-10-27T08:05:54.744Z,5.47
2017-10-27T08:08:23.627Z,4.87
2017-10-27T08:10:52.507Z,5.90
2017-10-27T08:13:20.608Z,5.40
2017-10-27T08:15:48.696Z,5.67
2017-10-27T08:18:16.795Z,5.23
2017-10-27T08:20:44.916Z,5.70
2017-10-27T08:23:15.005Z,5.20
2017-10-27T08:25:43.120Z,4.60
2017-10-27T08:28:11.303Z,5.00
2017-10-27T08:30:39.391Z,4.93
2017-10-27T08:33:07.550Z,6.43
2017-10-27T08:35:35.656Z,4.83
2017-10-27T08:38:03.751Z,4.27
2017-10-27T08:40:32.177Z,4.00
2017-10-27T08:43:00.262Z,4.63
2017-10-27T08:45:28.481Z,4.40
2017-10-27T08:47:56.572Z,4.37
2017-10-27T08:50:25.528Z,4.17
2017-10-27T08:52:53.692Z,4.30
2017-10-27T08:55:22.387Z,3.70
2017-10-27T08:57:50.483Z,3.80
2017-10-27T09:00:18.555Z,3.53
2017-10-27T09:02:47.455Z,3.90
2017-10-27T09:05:16.301Z,3.83
2017-10-27T09:07:44.436Z,4.70
2017-10-27T09:10:12.580Z,3.67
2017-10-27T09:12:40.666Z,3.50
2017-10-27T09:15:08.776Z,4.10
2017-10-27T09:17:36.897Z,4.20
2017-10-27T09:20:04.996Z,4.00
2017-10-27T09:22:33.300Z,4.23
2017-10-27T09:25:02.292Z,3.17
2017-10-27T09:27:30.492Z,4.10
2017-10-27T09:29:58.660Z,4.00
2017-10-27T09:32:26.844Z,4.90
2017-10-27T09:34:55.056Z,3.57
2017-10-27T09:37:23.174Z,4.90
2017-10-27T09:39:51.265Z,3.90
2017-10-27T09:42:19.448Z,4.33
2017-10-27T09:44:47.535Z,4.40
2017-10-27T09:47:16.396Z,3.20
2017-10-27T09:49:44.705Z,3.47
2017-10-27T09:52:13.012Z,3.93
2017-10-27T09:54:41.107Z,3.53
2017-10-27T09:57:09.208Z,3.73
2017-10-27T09:59:37.407Z,3.70
2017-10-27T10:02:05.509Z,4.27
2017-10-27T10:04:33.628Z,3.53
2017-10-27T10:07:01.715Z,4.50
2017-10-27T10:09:29.825Z,3.40
2017-10-27T10:11:57.942Z,3.87
2017-10-27T10:14:26.077Z,3.13
2017-10-27T10:16:54.296Z,4.10
2017-10-27T10:19:22.390Z,3.50
2017-10-27T10:21:51.240Z,3.03
2017-10-27T10:24:19.355Z,3.17
2017-10-27T10:26:48.650Z,3.90
2017-10-27T10:29:16.897Z,2.50
2017-10-27T10:31:45.065Z,3.60
2017-10-27T10:34:13.175Z,3.50
2017-10-27T10:36:42.050Z,4.17
2017-10-27T10:39:10.151Z,3.60
2017-10-27T10:41:38.534Z,3.40
2017-10-27T10:44:06.727Z,3.20
2017-10-27T10:46:34.836Z,3.13
2017-10-27T10:49:03.209Z,3.70
2017-10-27T10:51:31.298Z,3.50
2017-10-27T10:53:59.379Z,3.03
2017-10-27T10:56:28.263Z,2.90
2017-10-27T10:58:57.122Z,2.40
2017-10-27T11:01:25.229Z,2.47
2017-10-27T11:03:54.080Z,2.70
2017-10-27T11:06:22.396Z,2.80
2017-10-27T11:08:50.472Z,2.60
2017-10-27T11:11:18.575Z,2.83
2017-10-27T11:13:46.707Z,2.40
2017-10-27T11:16:14.895Z,3.20
2017-10-27T11:18:43.771Z,2.70
2017-10-27T11:21:11.876Z,3.27
2017-10-27T11:23:39.975Z,3.10
2017-10-27T11:26:08.076Z,2.50
2017-10-27T11:28:36.193Z,2.20
2017-10-27T11:31:04.277Z,1.97
2017-10-27T11:33:32.360Z,2.50
2017-10-27T11:36:01.250Z,2.67
2017-10-27T11:38:30.092Z,3.03
2017-10-27T11:40:58.937Z,2.67
2017-10-27T11:43:27.033Z,2.00
2017-10-27T11:45:55.114Z,4.10
2017-10-27T11:48:23.736Z,2.30
2017-10-27T11:50:51.831Z,3.40
2017-10-27T11:53:19.969Z,2.70
2017-10-27T11:55:48.816Z,2.90
2017-10-27T11:58:17.677Z,2.90
2017-10-27T12:00:45.789Z,2.43
2017-10-27T12:03:13.881Z,1.87
2017-10-27T12:05:41.959Z,2.50
2017-10-27T12:08:10.836Z,2.30
2017-10-27T12:10:38.927Z,2.83
2017-10-27T12:13:07.812Z,3.70
2017-10-27T12:15:35.912Z,3.73
2017-10-27T12:18:04.032Z,3.37
2017-10-27T12:20:32.181Z,3.40
2017-10-27T12:23:00.290Z,3.60
2017-10-27T12:25:28.387Z,4.47
2017-10-27T12:27:56.512Z,3.00
2017-10-27T12:30:24.587Z,2.80
2017-10-27T12:32:52.684Z,3.43
2017-10-27T12:35:20.793Z,4.20
2017-10-27T12:37:48.885Z,4.43
2017-10-27T12:40:16.996Z,5.47
2017-10-27T12:42:45.100Z,3.47
2017-10-27T12:45:13.200Z,4.37
2017-10-27T12:47:41.294Z,4.03
2017-10-27T12:50:09.421Z,2.80
2017-10-27T12:52:37.507Z,3.00
2017-10-27T12:55:05.835Z,2.90
2017-10-27T12:57:34.472Z,2.30
2017-10-27T13:00:02.580Z,2.50
2017-10-27T13:02:30.701Z,1.97
2017-10-27T13:04:58.796Z,3.10
2017-10-27T13:07:26.880Z,2.13
2017-10-27T13:09:54.985Z,1.90
2017-10-27T13:12:23.079Z,2.70
2017-10-27T13:14:51.998Z,2.93
2017-10-27T13:17:20.155Z,2.53
2017-10-27T13:19:48.280Z,2.10
2017-10-27T13:22:16.373Z,2.67
2017-10-27T13:24:44.509Z,2.20
2017-10-27T13:27:12.612Z,2.07
2017-10-27T13:29:40.683Z,1.80
2017-10-27T13:32:08.797Z,1.50
2017-10-27T13:34:36.876Z,2.27
2017-10-27T13:37:04.999Z,2.10
2017-10-27T13:39:33.085Z,2.10
2017-10-27T13:42:01.184Z,2.30
2017-10-27T13:44:29.263Z,2.27
2017-10-27T13:46:57.360Z,2.03
2017-10-27T13:49:25.462Z,5.07
2017-10-27T13:51:53.562Z,3.70
2017-10-27T13:54:22.479Z,3.50
2017-10-27T13:56:50.554Z,3.27
2017-10-27T13:59:18.801Z,3.20
2017-10-27T14:01:47.686Z,2.50
2017-10-27T14:04:16.581Z,2.13
2017-10-27T14:06:45.447Z,2.20
2017-10-27T14:09:13.604Z,2.10
2017-10-27T14:11:41.813Z,2.03
2017-10-27T14:14:10.704Z,2.20
2017-10-27T14:16:39.596Z,2.20
2017-10-27T14:19:07.748Z,1.70
2017-10-27T14:21:35.847Z,2.30
2017-10-27T14:24:04.771Z,2.47
2017-10-27T14:26:33.000Z,3.47
2017-10-27T14:29:01.181Z,2.80
2017-10-27T14:31:30.056Z,2.93
2017-10-27T14:33:58.275Z,2.00
2017-10-27T14:36:26.436Z,2.47
2017-10-27T14:38:56.416Z,2.53
2017-10-27T14:41:24.495Z,2.60
2017-10-27T14:43:52.577Z,2.03
2017-10-27T14:46:21.596Z,2.23
2017-10-27T14:48:49.722Z,2.60
2017-10-27T14:51:17.812Z,2.30
2017-10-27T14:53:46.692Z,2.87
2017-10-27T14:56:15.294Z,2.23
2017-10-27T14:58:43.464Z,4.43
2017-10-27T15:01:11.672Z,4.57
2017-10-27T15:03:39.800Z,5.90
2017-10-27T15:06:07.965Z,6.27
2017-10-27T15:08:36.084Z,4.37
2017-10-27T15:11:04.176Z,3.20
2017-10-27T15:13:32.247Z,3.40
2017-10-27T15:16:00.359Z,2.70
2017-10-27T15:18:28.587Z,2.53
2017-10-27T15:20:56.964Z,2.37
2017-10-27T15:23:25.052Z,2.50
2017-10-27T15:25:53.216Z,3.10
2017-10-27T15:28:22.230Z,2.43
2017-10-27T15:30:50.504Z,3.13
2017-10-27T15:33:19.628Z,2.60
2017-10-27T15:35:47.752Z,2.20
2017-10-27T15:38:16.074Z,2.40
2017-10-27T15:40:44.256Z,2.57
2017-10-27T15:43:12.629Z,3.00
2017-10-27T15:45:40.806Z,2.97
2017-10-27T15:48:08.924Z,5.90
2017-10-27T15:50:37.036Z,3.53
2017-10-27T15:53:05.293Z,3.33
2017-10-27T15:55:33.377Z,3.83
2017-10-27T15:58:01.580Z,4.20
2017-10-27T16:00:29.708Z,4.43
2017-10-27T16:02:57.797Z,4.60
2017-10-27T16:05:26.037Z,4.83
2017-10-27T16:07:54.136Z,4.70
2017-10-27T16:10:22.358Z,4.93
2017-10-27T16:12:51.321Z,7.10
2017-10-27T16:15:19.517Z,7.80
2017-10-27T16:17:48.468Z,6.37
2017-10-27T16:20:16.613Z,8.90
2017-10-27T16:22:44.759Z,7.30
2017-10-27T16:25:13.641Z,6.00
2017-10-27T16:27:41.904Z,5.70
2017-10-27T16:30:09.998Z,3.57
2017-10-27T16:32:38.915Z,4.93
2017-10-27T16:35:07.031Z,5.30
2017-10-27T16:37:35.222Z,4.70
2017-10-27T16:40:03.337Z,4.10
2017-10-27T16:42:31.431Z,3.73
2017-10-27T16:44:59.545Z,4.93
2017-10-27T16:47:27.793Z,6.73
2017-10-27T16:49:55.908Z,4.13
2017-10-27T16:52:24.805Z,3.40
2017-10-27T16:54:53.700Z,5.40
2017-10-27T16:57:21.864Z,4.47
2017-10-27T16:59:50.028Z,3.70
2017-10-27T17:02:18.304Z,4.00
2017-10-27T17:04:46.481Z,3.90
2017-10-27T17:07:15.392Z,3.47
2017-10-27T17:09:43.477Z,4.10
2017-10-27T17:12:11.628Z,4.23
2017-10-27T17:14:39.929Z,3.37
2017-10-27T17:17:08.024Z,3.77
2017-10-27T17:19:36.133Z,3.13
2017-10-27T17:22:04.248Z,3.87
2017-10-27T17:24:32.421Z,3.10
2017-10-27T17:27:00.587Z,2.63
2017-10-27T17:29:29.675Z,3.07
2017-10-27T17:31:57.866Z,3.90
2017-10-27T17:34:25.993Z,6.90
2017-10-27T17:36:54.085Z,8.60
2017-10-27T17:39:23.005Z,3.70
2017-10-27T17:41:51.884Z,3.60
2017-10-27T17:44:20.119Z,47.63
2017-10-27T17:46:48.229Z,38.83
2017-10-27T17:49:17.137Z,70.83
2017-10-27T17:51:46.040Z,8.30
2017-10-27T17:54:15.371Z,3.23
2017-10-27T17:56:43.601Z,6.17
2017-10-27T17:59:11.739Z,7.43
2017-10-27T18:01:39.980Z,11.10
2017-10-27T18:04:08.219Z,19.87
2017-10-27T18:06:36.705Z,7.43
2017-10-27T18:09:04.799Z,2.80
2017-10-27T18:11:33.552Z,4.57
2017-10-27T18:14:01.707Z,18.40
2017-10-27T18:16:30.739Z,3.07
2017-10-27T18:18:58.915Z,10.20
2017-10-27T18:21:27.000Z,11.57
2017-10-27T18:23:55.288Z,35.37
2017-10-27T18:26:23.501Z,11.30
2017-10-27T18:28:52.397Z,12.90
2017-10-27T18:31:20.574Z,23.60
2017-10-27T18:33:49.645Z,7.27
2017-10-27T18:36:17.770Z,13.13
2017-10-27T18:38:45.932Z,15.37
2017-10-27T18:41:14.023Z,25.37
2017-10-27T18:43:42.134Z,7.50
2017-10-27T18:46:10.401Z,16.50
2017-10-27T18:48:38.504Z,14.17
2017-10-27T18:51:06.675Z,13.20
2017-10-27T18:53:34.983Z,8.50
2017-10-27T18:56:03.132Z,20.43
2017-10-27T18:58:32.016Z,11.40
2017-10-27T19:01:00.904Z,6.93
2017-10-27T19:03:29.083Z,13.90
2017-10-27T19:05:57.248Z,7.30
2017-10-27T19:08:25.365Z,3.90
2017-10-27T19:10:53.453Z,5.43
2017-10-27T19:13:21.553Z,5.00
2017-10-27T19:15:49.812Z,5.13
2017-10-27T19:18:18.023Z,13.30
2017-10-27T19:20:46.932Z,4.30
2017-10-27T19:23:15.024Z,8.93
2017-10-27T19:25:43.187Z,3.50
2017-10-27T19:28:11.326Z,7.37
2017-10-27T19:30:39.407Z,5.00
2017-10-27T19:33:08.768Z,4.60
2017-10-27T19:35:36.877Z,3.27
2017-10-27T19:38:05.085Z,6.70
2017-10-27T19:40:33.818Z,5.10
2017-10-27T19:43:02.748Z,4.83
2017-10-27T19:45:31.872Z,3.60
2017-10-27T19:48:00.528Z,4.97
2017-10-27T19:50:29.423Z,3.20
2017-10-27T19:52:58.473Z,6.20
2017-10-27T19:55:26.612Z,4.70
2017-10-27T19:57:54.952Z,6.17
2017-10-27T20:00:23.032Z,4.70
2017-10-27T20:02:51.197Z,4.77
2017-10-27T20:05:19.324Z,4.30
2017-10-27T20:07:48.163Z,4.97
2017-10-27T20:10:17.043Z,3.60
2017-10-27T20:12:45.150Z,4.40
2017-10-27T20:15:13.253Z,3.90
2017-10-27T20:17:41.344Z,4.00
2017-10-27T20:20:09.429Z,6.10
2017-10-27T20:22:37.546Z,13.50
2017-10-27T20:25:05.641Z,14.70
2017-10-27T20:27:33.740Z,9.47
2017-10-27T20:30:01.861Z,4.47
2017-10-27T20:32:29.958Z,4.90
2017-10-27T20:34:58.101Z,3.13
2017-10-27T20:37:26.220Z,5.67
2017-10-27T20:39:54.342Z,3.40
2017-10-27T20:42:22.433Z,4.67
2017-10-27T20:44:50.569Z,20.27
2017-10-27T20:47:18.692Z,6.23
2017-10-27T20:49:46.791Z,4.40
2017-10-27T20:52:14.896Z,3.30
2017-10-27T20:54:43.758Z,5.20
2017-10-27T20:57:11.896Z,6.07
2017-10-27T20:59:40.032Z,8.23
2017-10-27T21:02:08.916Z,6.93
2017-10-27T21:04:37.820Z,7.87
2017-10-27T21:07:06.665Z,5.60
2017-10-27T21:09:34.832Z,3.80
2017-10-27T21:12:02.955Z,4.30
2017-10-27T21:14:31.815Z,3.40
2017-10-27T21:17:00.372Z,2.57
2017-10-27T21:19:28.462Z,3.90
2017-10-27T21:21:57.576Z,7.53
2017-10-27T21:24:25.677Z,23.53
2017-10-27T21:26:53.803Z,9.30
2017-10-27T21:29:21.948Z,26.57
2017-10-27T21:31:50.044Z,3.00
2017-10-27T21:34:18.296Z,4.00
2017-10-27T21:36:46.396Z,21.20
2017-10-27T21:39:15.356Z,16.57
2017-10-27T21:41:43.504Z,3.03
2017-10-27T21:44:11.588Z,3.60
2017-10-27T21:46:39.697Z,6.20
2017-10-27T21:49:07.784Z,20.17
2017-10-27T21:51:35.884Z,5.47
2017-10-27T21:54:04.775Z,8.97
2017-10-27T21:56:32.892Z,6.33
2017-10-27T21:59:00.981Z,3.87
2017-10-27T22:01:29.069Z,7.27
2017-10-27T22:03:57.187Z,15.30
2017-10-27T22:06:25.312Z,13.80
2017-10-27T22:08:53.428Z,13.10
2017-10-27T22:11:22.044Z,7.53
2017-10-27T22:13:50.133Z,15.57
2017-10-27T22:16:18.288Z,4.33
2017-10-27T22:18:46.417Z,7.23
2017-10-27T22:21:15.296Z,3.80
2017-10-27T22:23:43.390Z,3.00
2017-10-27T22:26:12.264Z,3.13
2017-10-27T22:28:41.132Z,3.07
2017-10-27T22:31:09.567Z,6.33
2017-10-27T22:33:37.680Z,3.63
2017-10-27T22:36:05.787Z,3.30
2017-10-27T22:38:34.694Z,3.50
2017-10-27T22:41:04.579Z,3.50
2017-10-27T22:43:33.440Z,2.90
2017-10-27T22:46:01.564Z,3.47
2017-10-27T22:48:29.676Z,3.40
2017-10-27T22:50:58.341Z,3.53
2017-10-27T22:53:26.422Z,3.20
2017-10-27T22:55:54.507Z,3.87
2017-10-27T22:58:23.536Z,3.20
2017-10-27T23:00:51.629Z,3.20
2017-10-27T23:03:19.723Z,3.13
2017-10-27T23:05:53.613Z,4.10
2017-10-27T23:08:21.780Z,3.80
2017-10-27T23:10:50.620Z,5.60
2017-10-27T23:13:18.725Z,6.13
2017-10-27T23:15:46.809Z,3.70
2017-10-27T23:18:15.687Z,5.87
2017-10-27T23:20:43.778Z,10.53
2017-10-27T23:23:12.620Z,3.67
2017-10-27T23:25:40.769Z,3.40
2017-10-27T23:28:09.049Z,3.50
2017-10-27T23:30:37.187Z,3.30
2017-10-27T23:33:06.059Z,2.80
2017-10-27T23:35:34.217Z,3.77
2017-10-27T23:38:02.311Z,35.00
2017-10-27T23:40:30.402Z,2.63
2017-10-27T23:42:58.516Z,2.90
2017-10-27T23:45:26.612Z,2.83
2017-10-27T23:47:54.696Z,3.47
2017-10-27T23:50:22.792Z,3.37
2017-10-27T23:52:50.875Z,2.80
2017-10-27T23:55:18.970Z,2.37
2017-10-27T23:57:47.084Z,2.97
